CEB794 RPME-RPLL
Flight info
| Callsign | CEB794 |
|---|---|
| Flight time | 1h 6m |
| Altitude | 38000 |
| Route | BAMP1B JARED W14 MCT W11 CONDE CONDE3R |
| Aircraft | A21N/M-SDE3FGHIRWY/LB1 |
Departure
| Time | 2026-05-05 06:18 |
|---|---|
| Airport | Bancasi Airport (RPME) |
Arrival
| Time | 2026-05-05 07:24 |
|---|---|
| Airport | Ninoy Aquino International Airport (RPLL) |
| Time | Latitude | Longitude | Altitude | Speed | Heading |
|---|---|---|---|---|---|
| 2026-05-05 06:14 | 8.94910 | 125.48305 | 53 ft | 6 kts | 71° |
| 2026-05-05 06:15 | 8.94916 | 125.48354 | 54 ft | 6 kts | 104° |
| 2026-05-05 06:15 | 8.94896 | 125.48399 | 54 ft | 7 kts | 115° |
| 2026-05-05 06:15 | 8.94872 | 125.48450 | 55 ft | 8 kts | 117° |
| 2026-05-05 06:15 | 8.94844 | 125.48506 | 55 ft | 9 kts | 116° |
| 2026-05-05 06:16 | 8.94815 | 125.48566 | 56 ft | 9 kts | 115° |
| 2026-05-05 06:16 | 8.94799 | 125.48627 | 56 ft | 6 kts | 95° |
| 2026-05-05 06:16 | 8.94787 | 125.48653 | 57 ft | 2 kts | 147° |
| 2026-05-05 06:16 | 8.94781 | 125.48653 | 57 ft | 0 kts | 201° |
| 2026-05-05 06:17 | 8.94780 | 125.48640 | 57 ft | 2 kts | 280° |
| 2026-05-05 06:17 | 8.94786 | 125.48624 | 57 ft | 0 kts | 296° |
| 2026-05-05 06:17 | 8.94856 | 125.48483 | 55 ft | 61 kts | 296° |
| 2026-05-05 06:18 | 8.95170 | 125.47844 | 48 ft | 136 kts | 297° |
| 2026-05-05 06:18 | 8.95648 | 125.46835 | 274 ft | 172 kts | 297° |
| 2026-05-05 06:18 | 8.96164 | 125.45733 | 965 ft | 176 kts | 299° |
| 2026-05-05 06:18 | 8.96862 | 125.44753 | 1693 ft | 176 kts | 316° |
| 2026-05-05 06:19 | 8.97709 | 125.43874 | 2223 ft | 178 kts | 317° |
| 2026-05-05 06:19 | 8.98604 | 125.42934 | 2535 ft | 194 kts | 316° |
| 2026-05-05 06:19 | 8.99573 | 125.41897 | 2852 ft | 210 kts | 316° |
| 2026-05-05 06:19 | 9.00612 | 125.40789 | 3177 ft | 227 kts | 316° |
| 2026-05-05 06:20 | 9.01776 | 125.39561 | 3461 ft | 249 kts | 316° |
| 2026-05-05 06:20 | 9.03018 | 125.38257 | 3909 ft | 266 kts | 316° |
| 2026-05-05 06:20 | 9.04326 | 125.36888 | 4439 ft | 278 kts | 316° |
| 2026-05-05 06:20 | 9.05670 | 125.35483 | 5178 ft | 282 kts | 315° |
| 2026-05-05 06:21 | 9.07047 | 125.34043 | 5952 ft | 286 kts | 315° |
| 2026-05-05 06:21 | 9.08438 | 125.32591 | 6690 ft | 289 kts | 315° |
| 2026-05-05 06:21 | 9.09835 | 125.31132 | 7426 ft | 292 kts | 315° |
| 2026-05-05 06:21 | 9.11252 | 125.29653 | 8169 ft | 295 kts | 315° |
| 2026-05-05 06:22 | 9.12690 | 125.28153 | 8893 ft | 299 kts | 315° |
| 2026-05-05 06:22 | 9.14134 | 125.26648 | 9581 ft | 302 kts | 315° |
| 2026-05-05 06:22 | 9.15606 | 125.25112 | 10262 ft | 305 kts | 315° |
| 2026-05-05 06:22 | 9.17099 | 125.23552 | 10932 ft | 308 kts | 315° |
| 2026-05-05 06:23 | 9.18605 | 125.21980 | 11430 ft | 318 kts | 315° |
| 2026-05-05 06:23 | 9.20182 | 125.20334 | 11702 ft | 334 kts | 315° |
| 2026-05-05 06:23 | 9.21835 | 125.18610 | 11968 ft | 350 kts | 315° |
| 2026-05-05 06:23 | 9.23575 | 125.16794 | 12221 ft | 365 kts | 315° |
| 2026-05-05 06:24 | 9.25369 | 125.14922 | 12463 ft | 379 kts | 314° |
| 2026-05-05 06:24 | 9.27232 | 125.12978 | 12703 ft | 392 kts | 314° |
| 2026-05-05 06:24 | 9.29159 | 125.10966 | 12928 ft | 404 kts | 314° |
| 2026-05-05 06:24 | 9.31144 | 125.08890 | 13317 ft | 410 kts | 314° |
| 2026-05-05 06:25 | 9.33144 | 125.06796 | 13807 ft | 413 kts | 314° |
| 2026-05-05 06:25 | 9.35133 | 125.04714 | 14253 ft | 415 kts | 314° |
| 2026-05-05 06:25 | 9.37140 | 125.02613 | 14701 ft | 418 kts | 314° |
| 2026-05-05 06:25 | 9.39190 | 125.00466 | 15132 ft | 421 kts | 315° |
| 2026-05-05 06:26 | 9.41228 | 124.98332 | 15527 ft | 424 kts | 315° |
| 2026-05-05 06:26 | 9.43278 | 124.96186 | 15908 ft | 427 kts | 315° |
| 2026-05-05 06:26 | 9.45350 | 124.94019 | 16274 ft | 430 kts | 315° |
| 2026-05-05 06:26 | 9.47403 | 124.91808 | 16651 ft | 433 kts | 313° |
| 2026-05-05 06:27 | 9.49472 | 124.89526 | 17013 ft | 436 kts | 313° |
| 2026-05-05 06:27 | 9.53586 | 124.84965 | 17691 ft | 441 kts | 313° |
| 2026-05-05 06:27 | 9.55637 | 124.82694 | 18030 ft | 443 kts | 313° |
| 2026-05-05 06:28 | 9.57728 | 124.80380 | 18374 ft | 444 kts | 313° |
| 2026-05-05 06:28 | 9.59826 | 124.78061 | 18704 ft | 446 kts | 314° |
| 2026-05-05 06:28 | 9.61929 | 124.75734 | 19012 ft | 448 kts | 314° |
| 2026-05-05 06:28 | 9.64036 | 124.73405 | 19321 ft | 450 kts | 314° |
| 2026-05-05 06:29 | 9.66147 | 124.71069 | 19625 ft | 452 kts | 314° |
| 2026-05-05 06:29 | 9.68282 | 124.68708 | 19915 ft | 454 kts | 314° |
| 2026-05-05 06:29 | 9.70414 | 124.66348 | 20200 ft | 456 kts | 314° |
| 2026-05-05 06:29 | 9.72584 | 124.63945 | 20479 ft | 458 kts | 314° |
| 2026-05-05 06:30 | 9.74734 | 124.61565 | 20758 ft | 459 kts | 314° |
| 2026-05-05 06:30 | 9.76891 | 124.59187 | 21025 ft | 461 kts | 314° |
| 2026-05-05 06:30 | 9.79058 | 124.56799 | 21287 ft | 462 kts | 314° |
| 2026-05-05 06:30 | 9.81255 | 124.54378 | 21539 ft | 464 kts | 314° |
| 2026-05-05 06:31 | 9.83436 | 124.51971 | 21781 ft | 466 kts | 314° |
| 2026-05-05 06:31 | 9.85634 | 124.49543 | 22024 ft | 467 kts | 314° |
| 2026-05-05 06:31 | 9.87819 | 124.47127 | 22262 ft | 469 kts | 314° |
| 2026-05-05 06:31 | 9.90045 | 124.44666 | 22508 ft | 470 kts | 314° |
| 2026-05-05 06:32 | 9.92247 | 124.42231 | 22744 ft | 472 kts | 314° |
| 2026-05-05 06:32 | 9.94456 | 124.39786 | 22979 ft | 473 kts | 314° |
| 2026-05-05 06:32 | 9.96692 | 124.37309 | 23196 ft | 475 kts | 314° |
| 2026-05-05 06:32 | 9.98917 | 124.34842 | 23419 ft | 476 kts | 314° |
| 2026-05-05 06:33 | 10.01157 | 124.32360 | 23655 ft | 477 kts | 314° |
| 2026-05-05 06:33 | 10.03401 | 124.29876 | 23892 ft | 478 kts | 314° |
| 2026-05-05 06:33 | 10.05666 | 124.27374 | 24106 ft | 479 kts | 313° |
| 2026-05-05 06:33 | 10.07918 | 124.24885 | 24315 ft | 480 kts | 313° |
| 2026-05-05 06:34 | 10.10175 | 124.22389 | 24527 ft | 482 kts | 313° |
| 2026-05-05 06:34 | 10.12453 | 124.19866 | 24739 ft | 483 kts | 313° |
| 2026-05-05 06:34 | 10.14723 | 124.17349 | 24942 ft | 484 kts | 313° |
| 2026-05-05 06:34 | 10.16988 | 124.14837 | 25220 ft | 483 kts | 313° |
| 2026-05-05 06:35 | 10.19274 | 124.12300 | 25528 ft | 482 kts | 313° |
| 2026-05-05 06:35 | 10.21523 | 124.09802 | 25832 ft | 481 kts | 313° |
| 2026-05-05 06:35 | 10.23012 | 124.08146 | 26027 ft | 480 kts | 313° |
| 2026-05-05 06:35 | 10.26010 | 124.04815 | 26417 ft | 479 kts | 313° |
| 2026-05-05 06:36 | 10.28259 | 124.02327 | 26700 ft | 478 kts | 313° |
| 2026-05-05 06:36 | 10.30651 | 123.99934 | 27007 ft | 477 kts | 317° |
| 2026-05-05 06:36 | 10.33146 | 123.97773 | 27322 ft | 476 kts | 322° |
| 2026-05-05 06:36 | 10.35807 | 123.95780 | 27617 ft | 475 kts | 325° |
| 2026-05-05 06:37 | 10.38540 | 123.93867 | 27933 ft | 474 kts | 326° |
| 2026-05-05 06:37 | 10.41276 | 123.91975 | 28262 ft | 473 kts | 326° |
| 2026-05-05 06:37 | 10.44005 | 123.90092 | 28609 ft | 472 kts | 326° |
| 2026-05-05 06:37 | 10.46692 | 123.88231 | 28941 ft | 472 kts | 325° |
| 2026-05-05 06:38 | 10.49422 | 123.86337 | 29274 ft | 471 kts | 325° |
| 2026-05-05 06:38 | 10.52111 | 123.84467 | 29630 ft | 470 kts | 325° |
| 2026-05-05 06:38 | 10.54810 | 123.82588 | 29983 ft | 469 kts | 325° |
| 2026-05-05 06:38 | 10.57523 | 123.80700 | 30346 ft | 468 kts | 325° |
| 2026-05-05 06:39 | 10.60211 | 123.78827 | 30713 ft | 468 kts | 325° |
| 2026-05-05 06:39 | 10.62894 | 123.76959 | 31066 ft | 467 kts | 325° |
| 2026-05-05 06:39 | 10.65565 | 123.75099 | 31420 ft | 466 kts | 325° |
| 2026-05-05 06:39 | 10.68260 | 123.73225 | 31796 ft | 466 kts | 325° |
| 2026-05-05 06:40 | 10.70039 | 123.71990 | 32053 ft | 465 kts | 325° |
| 2026-05-05 06:40 | 10.73590 | 123.69524 | 32556 ft | 463 kts | 325° |
| 2026-05-05 06:40 | 10.76226 | 123.67689 | 32975 ft | 462 kts | 325° |
| 2026-05-05 06:40 | 10.78887 | 123.65836 | 33402 ft | 462 kts | 325° |
| 2026-05-05 06:41 | 10.81531 | 123.63993 | 33842 ft | 461 kts | 325° |
| 2026-05-05 06:41 | 10.84194 | 123.62137 | 34306 ft | 459 kts | 325° |
| 2026-05-05 06:41 | 10.86816 | 123.60307 | 34754 ft | 458 kts | 325° |
| 2026-05-05 06:41 | 10.89415 | 123.58494 | 35170 ft | 456 kts | 325° |
| 2026-05-05 06:42 | 10.92060 | 123.56646 | 35571 ft | 456 kts | 325° |
| 2026-05-05 06:42 | 10.94655 | 123.54833 | 35926 ft | 455 kts | 325° |
| 2026-05-05 06:42 | 10.97285 | 123.52994 | 36241 ft | 456 kts | 325° |
| 2026-05-05 06:42 | 10.99898 | 123.51171 | 36501 ft | 457 kts | 325° |
| 2026-05-05 06:43 | 11.02514 | 123.49349 | 36743 ft | 458 kts | 325° |
| 2026-05-05 06:43 | 11.05149 | 123.47517 | 36979 ft | 459 kts | 325° |
| 2026-05-05 06:43 | 11.07795 | 123.45676 | 37216 ft | 460 kts | 325° |
| 2026-05-05 06:43 | 11.10432 | 123.43837 | 37443 ft | 461 kts | 325° |
| 2026-05-05 06:44 | 11.13084 | 123.41986 | 37647 ft | 461 kts | 325° |
| 2026-05-05 06:44 | 11.15737 | 123.40133 | 37824 ft | 463 kts | 325° |
| 2026-05-05 06:44 | 11.18404 | 123.38269 | 37859 ft | 464 kts | 325° |
| 2026-05-05 06:45 | 11.23728 | 123.34548 | 37866 ft | 465 kts | 324° |
| 2026-05-05 06:45 | 11.29081 | 123.30804 | 37868 ft | 464 kts | 324° |
| 2026-05-05 06:46 | 11.34396 | 123.27086 | 37871 ft | 464 kts | 324° |
| 2026-05-05 06:46 | 11.39715 | 123.23360 | 37871 ft | 464 kts | 324° |
| 2026-05-05 06:47 | 11.45063 | 123.19615 | 37872 ft | 463 kts | 324° |
| 2026-05-05 06:47 | 11.50391 | 123.15881 | 37873 ft | 469 kts | 324° |
| 2026-05-05 06:48 | 11.55826 | 123.12070 | 37874 ft | 474 kts | 324° |
| 2026-05-05 06:48 | 11.61249 | 123.08266 | 37875 ft | 475 kts | 324° |
| 2026-05-05 06:49 | 11.66701 | 123.04440 | 37876 ft | 474 kts | 324° |
| 2026-05-05 06:49 | 11.72133 | 123.00626 | 37878 ft | 473 kts | 324° |
| 2026-05-05 06:50 | 11.77552 | 122.96820 | 37881 ft | 473 kts | 324° |
| 2026-05-05 06:50 | 11.82963 | 122.93016 | 37892 ft | 473 kts | 324° |
| 2026-05-05 06:51 | 11.88398 | 122.89195 | 37893 ft | 473 kts | 324° |
| 2026-05-05 06:51 | 11.93815 | 122.85384 | 37895 ft | 474 kts | 324° |
| 2026-05-05 06:52 | 11.99263 | 122.81548 | 37891 ft | 474 kts | 324° |
| 2026-05-05 06:53 | 12.15784 | 122.69904 | 37883 ft | 472 kts | 324° |
| 2026-05-05 06:54 | 12.16668 | 122.69280 | 37882 ft | 472 kts | 324° |
| 2026-05-05 06:54 | 12.26439 | 122.62380 | 37881 ft | 473 kts | 324° |
| 2026-05-05 06:55 | 12.31837 | 122.58562 | 37881 ft | 473 kts | 324° |
| 2026-05-05 06:55 | 12.37257 | 122.54731 | 37881 ft | 473 kts | 324° |
| 2026-05-05 06:56 | 12.42689 | 122.50905 | 37882 ft | 473 kts | 324° |
| 2026-05-05 06:56 | 12.48098 | 122.47089 | 37881 ft | 474 kts | 324° |
| 2026-05-05 06:57 | 12.53537 | 122.43246 | 37886 ft | 473 kts | 324° |
| 2026-05-05 06:57 | 12.58941 | 122.39422 | 37884 ft | 473 kts | 324° |
| 2026-05-05 06:58 | 12.64385 | 122.35566 | 37880 ft | 473 kts | 324° |
| 2026-05-05 06:58 | 12.69767 | 122.31752 | 37880 ft | 473 kts | 324° |
| 2026-05-05 06:59 | 12.75192 | 122.27906 | 37882 ft | 473 kts | 324° |
| 2026-05-05 06:59 | 12.80603 | 122.24068 | 37881 ft | 472 kts | 324° |
| 2026-05-05 07:00 | 12.86007 | 122.20233 | 37881 ft | 473 kts | 324° |
| 2026-05-05 07:00 | 12.91401 | 122.16403 | 37882 ft | 473 kts | 324° |
| 2026-05-05 07:01 | 12.96819 | 122.12552 | 37882 ft | 472 kts | 324° |
| 2026-05-05 07:01 | 13.02211 | 122.08719 | 37884 ft | 471 kts | 324° |
| 2026-05-05 07:01 | 13.04904 | 122.06802 | 37689 ft | 466 kts | 324° |
| 2026-05-05 07:02 | 13.06651 | 122.05559 | 37496 ft | 462 kts | 324° |
| 2026-05-05 07:02 | 13.10164 | 122.03059 | 37105 ft | 456 kts | 324° |
| 2026-05-05 07:02 | 13.12779 | 122.01198 | 36813 ft | 453 kts | 324° |
| 2026-05-05 07:02 | 13.15343 | 121.99373 | 36528 ft | 452 kts | 324° |
| 2026-05-05 07:03 | 13.17938 | 121.97524 | 36239 ft | 451 kts | 324° |
| 2026-05-05 07:03 | 13.20529 | 121.95679 | 35944 ft | 452 kts | 324° |
| 2026-05-05 07:03 | 13.23086 | 121.93856 | 35542 ft | 452 kts | 324° |
| 2026-05-05 07:03 | 13.25690 | 121.92000 | 34964 ft | 453 kts | 324° |
| 2026-05-05 07:04 | 13.28253 | 121.90171 | 34270 ft | 454 kts | 324° |
| 2026-05-05 07:04 | 13.30880 | 121.88296 | 33512 ft | 454 kts | 324° |
| 2026-05-05 07:04 | 13.33475 | 121.86444 | 32732 ft | 455 kts | 324° |
| 2026-05-05 07:04 | 13.36055 | 121.84603 | 31985 ft | 456 kts | 324° |
| 2026-05-05 07:05 | 13.38684 | 121.82726 | 31167 ft | 459 kts | 324° |
| 2026-05-05 07:05 | 13.41298 | 121.80862 | 30304 ft | 463 kts | 324° |
| 2026-05-05 07:05 | 13.43930 | 121.78981 | 29413 ft | 467 kts | 324° |
| 2026-05-05 07:05 | 13.46625 | 121.77056 | 28469 ft | 471 kts | 324° |
| 2026-05-05 07:06 | 13.49315 | 121.75132 | 27537 ft | 475 kts | 324° |
| 2026-05-05 07:06 | 13.52014 | 121.73201 | 26588 ft | 479 kts | 325° |
| 2026-05-05 07:06 | 13.54778 | 121.71224 | 25595 ft | 482 kts | 325° |
| 2026-05-05 07:06 | 13.56580 | 121.69933 | 24930 ft | 484 kts | 325° |
| 2026-05-05 07:07 | 13.59344 | 121.67954 | 24218 ft | 479 kts | 325° |
| 2026-05-05 07:07 | 13.62946 | 121.65375 | 23354 ft | 472 kts | 325° |
| 2026-05-05 07:07 | 13.65641 | 121.63445 | 22701 ft | 466 kts | 325° |
| 2026-05-05 07:07 | 13.68247 | 121.61488 | 22058 ft | 461 kts | 322° |
| 2026-05-05 07:08 | 13.70713 | 121.59415 | 21427 ft | 456 kts | 320° |
| 2026-05-05 07:08 | 13.73092 | 121.57268 | 20790 ft | 452 kts | 319° |
| 2026-05-05 07:08 | 13.75416 | 121.55140 | 20145 ft | 448 kts | 319° |
| 2026-05-05 07:08 | 13.77739 | 121.53006 | 19487 ft | 444 kts | 319° |
| 2026-05-05 07:09 | 13.78503 | 121.52304 | 19275 ft | 443 kts | 319° |
| 2026-05-05 07:09 | 13.81538 | 121.49517 | 18423 ft | 439 kts | 319° |
| 2026-05-05 07:09 | 13.84580 | 121.46727 | 17550 ft | 435 kts | 319° |
| 2026-05-05 07:09 | 13.86822 | 121.44672 | 16910 ft | 432 kts | 319° |
| 2026-05-05 07:10 | 13.89060 | 121.42620 | 16266 ft | 429 kts | 319° |
| 2026-05-05 07:10 | 13.91287 | 121.40578 | 15622 ft | 426 kts | 319° |
| 2026-05-05 07:10 | 13.93467 | 121.38577 | 14986 ft | 423 kts | 319° |
| 2026-05-05 07:10 | 13.95648 | 121.36571 | 14356 ft | 420 kts | 319° |
| 2026-05-05 07:11 | 13.97099 | 121.35239 | 13954 ft | 417 kts | 319° |
| 2026-05-05 07:11 | 13.99263 | 121.33252 | 13324 ft | 414 kts | 319° |
| 2026-05-05 07:12 | 14.06361 | 121.24071 | 11245 ft | 386 kts | 292° |
| 2026-05-05 07:12 | 14.07299 | 121.21546 | 10961 ft | 373 kts | 291° |
| 2026-05-05 07:12 | 14.08185 | 121.19102 | 10707 ft | 347 kts | 291° |
| 2026-05-05 07:13 | 14.08991 | 121.16888 | 10511 ft | 321 kts | 291° |
| 2026-05-05 07:13 | 14.09764 | 121.14784 | 10336 ft | 306 kts | 291° |
| 2026-05-05 07:13 | 14.10512 | 121.12760 | 10134 ft | 297 kts | 291° |
| 2026-05-05 07:13 | 14.10753 | 121.12112 | 10078 ft | 291 kts | 291° |
| 2026-05-05 07:14 | 14.12784 | 121.06653 | 9269 ft | 275 kts | 291° |
| 2026-05-05 07:14 | 14.13462 | 121.04833 | 9018 ft | 269 kts | 291° |
| 2026-05-05 07:14 | 14.14128 | 121.03043 | 8760 ft | 265 kts | 291° |
| 2026-05-05 07:15 | 14.14565 | 121.01869 | 8598 ft | 262 kts | 291° |
| 2026-05-05 07:15 | 14.15429 | 120.99550 | 8256 ft | 258 kts | 291° |
| 2026-05-05 07:15 | 14.15856 | 120.98405 | 8042 ft | 256 kts | 291° |
| 2026-05-05 07:15 | 14.16712 | 120.96123 | 7608 ft | 255 kts | 294° |
| 2026-05-05 07:16 | 14.17647 | 120.94598 | 7296 ft | 251 kts | 316° |
| 2026-05-05 07:16 | 14.19007 | 120.93504 | 7020 ft | 246 kts | 332° |
| 2026-05-05 07:16 | 14.20488 | 120.92638 | 6736 ft | 244 kts | 334° |
| 2026-05-05 07:16 | 14.21982 | 120.91795 | 6439 ft | 242 kts | 334° |
| 2026-05-05 07:17 | 14.27045 | 120.88859 | 5099 ft | 263 kts | 333° |
| 2026-05-05 07:18 | 14.29718 | 120.87298 | 4512 ft | 265 kts | 333° |
| 2026-05-05 07:18 | 14.31329 | 120.86365 | 4219 ft | 263 kts | 333° |
| 2026-05-05 07:18 | 14.32909 | 120.85451 | 3975 ft | 258 kts | 333° |
| 2026-05-05 07:18 | 14.34464 | 120.84551 | 3709 ft | 254 kts | 333° |
| 2026-05-05 07:19 | 14.35998 | 120.83662 | 3460 ft | 250 kts | 333° |
| 2026-05-05 07:19 | 14.36992 | 120.83088 | 3286 ft | 244 kts | 334° |
| 2026-05-05 07:19 | 14.37995 | 120.82582 | 3110 ft | 233 kts | 346° |
| 2026-05-05 07:20 | 14.41585 | 120.85194 | 3024 ft | 181 kts | 63° |
| 2026-05-05 07:20 | 14.42200 | 120.86324 | 2915 ft | 181 kts | 63° |
| 2026-05-05 07:20 | 14.42815 | 120.87453 | 2678 ft | 180 kts | 63° |
| 2026-05-05 07:21 | 14.43439 | 120.88588 | 2446 ft | 179 kts | 63° |
| 2026-05-05 07:21 | 14.43638 | 120.88947 | 2367 ft | 177 kts | 62° |
| 2026-05-05 07:21 | 14.44937 | 120.91280 | 1853 ft | 143 kts | 63° |
| 2026-05-05 07:22 | 14.46051 | 120.93285 | 1492 ft | 135 kts | 63° |
| 2026-05-05 07:22 | 14.46519 | 120.94128 | 1326 ft | 135 kts | 64° |
| 2026-05-05 07:22 | 14.46980 | 120.94955 | 1164 ft | 134 kts | 65° |
| 2026-05-05 07:23 | 14.47453 | 120.95800 | 1073 ft | 134 kts | 63° |
| 2026-05-05 07:23 | 14.47931 | 120.96616 | 835 ft | 133 kts | 65° |
| 2026-05-05 07:23 | 14.48381 | 120.97458 | 624 ft | 132 kts | 63° |
| 2026-05-05 07:23 | 14.48524 | 120.97736 | 598 ft | 133 kts | 63° |
| 2026-05-05 07:24 | 14.49291 | 120.99123 | 322 ft | 132 kts | 61° |
| 2026-05-05 07:24 | 14.49752 | 120.99957 | 166 ft | 134 kts | 62° |
| 2026-05-05 07:24 | 14.50182 | 121.00732 | 82 ft | 95 kts | 60° |
| 2026-05-05 07:24 | 14.50392 | 121.01106 | 82 ft | 44 kts | 58° |
| 2026-05-05 07:25 | 14.50536 | 121.01367 | 82 ft | 39 kts | 61° |
| 2026-05-05 07:25 | 14.50663 | 121.01598 | 82 ft | 35 kts | 58° |
| 2026-05-05 07:25 | 14.50800 | 121.01747 | 82 ft | 17 kts | 38° |
| 2026-05-05 07:25 | 14.50856 | 121.01789 | 82 ft | 7 kts | 19° |
| 2026-05-05 07:26 | 14.50874 | 121.01790 | 82 ft | 8 kts | 351° |
| 2026-05-05 07:26 | 14.51075 | 121.01597 | 82 ft | 12 kts | 315° |
| 2026-05-05 07:27 | 14.51137 | 121.01533 | 82 ft | 13 kts | 315° |
| 2026-05-05 07:27 | 14.51201 | 121.01466 | 82 ft | 12 kts | 314° |
| 2026-05-05 07:27 | 14.51256 | 121.01424 | 82 ft | 7 kts | 356° |
| 2026-05-05 07:27 | 14.51286 | 121.01438 | 82 ft | 7 kts | 45° |
| 2026-05-05 07:28 | 14.51427 | 121.01590 | 82 ft | 7 kts | 22° |
| 2026-05-05 07:28 | 14.51478 | 121.01567 | 82 ft | 9 kts | 314° |
| 2026-05-05 07:29 | 14.51525 | 121.01517 | 82 ft | 10 kts | 315° |
| 2026-05-05 07:29 | 14.51580 | 121.01463 | 82 ft | 11 kts | 315° |
| 2026-05-05 07:29 | 14.51637 | 121.01402 | 82 ft | 12 kts | 314° |
| 2026-05-05 07:29 | 14.51699 | 121.01337 | 82 ft | 13 kts | 315° |
| 2026-05-05 07:30 | 14.51766 | 121.01270 | 82 ft | 13 kts | 314° |
| 2026-05-05 07:30 | 14.51871 | 121.01169 | 82 ft | 4 kts | 349° |
| 2026-05-05 07:30 | 14.51900 | 121.01184 | 82 ft | 5 kts | 42° |
| 2026-05-05 07:31 | 14.51920 | 121.01204 | 82 ft | 6 kts | 44° |
| 2026-05-05 07:31 | 14.51939 | 121.01222 | 82 ft | 1 kts | 44° |
| 2026-05-05 07:31 | 14.51941 | 121.01224 | 82 ft | 0 kts | 44° |